Time;durP1;ratioP1;P1;durP2;ratioP2;P2;SDS_P1;SDS_P2;PMS_P1;PMS_P2;Temp;Humidity;BMP_temperature;BMP_pressure;BME280_temperature;BME280_humidity;BME280_pressure;Samples;Min_cycle;Max_cycle;Signal;HPM_P1;HPM_P2
2022/02/10 00:21:20;;;;;;;9.38;5.82;;;5.10;71.30;;;;;;5057690;28;20103;-62
2022/02/10 00:34:45;;;;;;;6.82;4.35;;;4.90;71.40;;;;;;5064952;28;20577;-62
2022/02/10 00:37:18;;;;;;;11.05;6.30;;;4.90;71.40;;;;;;5056375;28;20035;-62
2022/02/10 00:42:28;;;;;;;10.52;5.07;;;4.90;71.60;;;;;;5047290;28;20035;-62
2022/02/10 00:44:54;;;;;;;7.90;5.13;;;4.90;71.60;;;;;;5059453;28;20383;-62
2022/02/10 00:47:19;;;;;;;7.90;5.88;;;4.90;71.60;;;;;;5069968;28;20037;-62
2022/02/10 00:49:47;;;;;;;12.93;7.28;;;5.00;71.60;;;;;;5064945;28;20021;-62
2022/02/10 00:52:13;;;;;;;11.57;6.97;;;5.00;71.50;;;;;;5062051;28;20020;-62
2022/02/10 00:54:39;;;;;;;15.77;8.98;;;5.00;71.50;;;;;;5064151;28;20152;-62
2022/02/10 00:57:08;;;;;;;10.27;6.43;;;5.10;71.50;;;;;;5067852;28;20025;-62
2022/02/10 01:31:51;;;;;;;8.15;5.03;;;5.00;72.10;;;;;;5051485;28;20031;-62
2022/02/10 01:34:17;;;;;;;8.93;4.13;;;4.90;72.10;;;;;;5053192;28;20127;-62
2022/02/10 01:36:43;;;;;;;8.50;5.05;;;4.90;72.10;;;;;;5048820;28;20035;-62
2022/02/10 01:39:08;;;;;;;9.02;5.07;;;4.90;72.20;;;;;;5068103;28;20013;-62
2022/02/10 02:03:36;;;;;;;9.77;5.18;;;5.10;72.80;;;;;;5062263;28;20044;-63
2022/02/10 02:06:10;;;;;;;7.25;4.28;;;5.10;72.80;;;;;;5044997;28;20033;-63
2022/02/10 02:08:39;;;;;;;8.02;5.75;;;5.20;73.40;;;;;;5052533;28;20040;-62
2022/02/10 02:11:05;;;;;;;6.72;4.78;;;5.20;72.80;;;;;;5058762;28;20057;-62
2022/02/10 02:13:31;;;;;;;9.68;4.93;;;5.20;72.80;;;;;;5060656;28;20037;-62
2022/02/10 02:15:58;;;;;;;12.25;5.68;;;5.20;73.10;;;;;;5065774;28;20388;-62
2022/02/10 02:18:24;;;;;;;7.60;4.97;;;5.20;73.10;;;;;;5062937;28;20102;-62
2022/02/10 02:20:53;;;;;;;8.52;5.85;;;5.20;73.10;;;;;;5066472;28;20040;-62
2022/02/10 02:23:21;;;;;;;8.85;5.03;;;5.20;73.30;;;;;;5061910;28;20478;-62
2022/02/10 02:25:51;;;;;;;8.13;5.25;;;5.20;73.50;;;;;;5056512;28;20108;-62
2022/02/10 02:28:17;;;;;;;8.68;5.65;;;5.20;73.30;;;;;;5063576;28;20013;-62
2022/02/10 02:30:51;;;;;;;9.55;5.18;;;5.20;73.30;;;;;;5068378;28;20033;-62
2022/02/10 03:05:27;;;;;;;8.52;4.57;;;5.20;74.00;;;;;;5052510;28;20119;-62
2022/02/10 03:07:56;;;;;;;7.95;5.38;;;5.20;74.00;;;;;;5070816;28;20033;-62
2022/02/10 03:12:50;;;;;;;9.20;6.53;;;5.30;74.10;;;;;;5058419;28;20130;-62
2022/02/10 03:15:33;;;;;;;9.50;5.97;;;5.30;74.30;;;;;;5074575;28;20056;-62
2022/02/10 03:18:15;;;;;;;11.05;6.75;;;5.30;74.30;;;;;;5073837;28;20361;-62
2022/02/10 03:21:00;;;;;;;7.50;5.30;;;5.30;74.50;;;;;;5065623;28;20017;-62
2022/02/10 04:05:06;;;;;;;8.90;6.72;;;5.20;77.50;;;;;;5069337;28;20079;-62
2022/02/10 04:23:17;;;;;;;9.88;6.75;;;5.30;78.60;;;;;;5060442;28;20047;-62
2022/02/10 04:57:58;;;;;;;7.65;5.40;;;5.70;80.80;;;;;;5054950;28;20053;-62
2022/02/10 05:16:37;;;;;;;9.73;7.80;;;5.80;80.70;;;;;;5060609;28;20044;-62
2022/02/10 05:46:10;;;;;;;;;;;6.50;81.60;;;;;;5060122;28;20035;-62
2022/02/10 05:48:54;;;;;;;10.23;6.72;;;6.50;81.80;;;;;;5049985;28;19909;-62
2022/02/10 05:59:55;;;;;;;12.57;8.90;;;6.60;82.00;;;;;;5052055;28;20108;-63
2022/02/10 06:51:36;;;;;;;16.55;12.88;;;7.60;81.70;;;;;;5048753;28;20040;-63
2022/02/10 07:10:41;;;;;;;19.17;15.05;;;8.00;80.80;;;;;;5041972;28;20047;-62
2022/02/10 07:44:03;;;;;;;18.70;14.48;;;8.30;79.60;;;;;;5040890;28;20114;-63
2022/02/10 07:49:15;;;;;;;19.23;14.65;;;8.40;79.30;;;;;;5038939;28;20025;-63
2022/02/10 10:03:06;;;;;;;11.13;9.45;;;9.10;77.80;;;;;;5029888;28;20045;-63
2022/02/10 10:05:41;;;;;;;13.13;11.07;;;9.10;77.90;;;;;;5039244;28;20024;-63
2022/02/10 10:08:37;;;;;;;12.15;10.68;;;9.20;77.80;;;;;;5038745;28;20059;-63
2022/02/10 10:14:32;;;;;;;11.82;10.45;;;9.40;77.20;;;;;;5040110;28;20040;-63
2022/02/10 10:23:10;;;;;;;12.32;9.68;;;9.40;76.70;;;;;;5042524;28;20086;-62
2022/02/10 10:50:42;;;;;;;9.70;8.70;;;9.60;75.50;;;;;;5030073;28;22142;-63
2022/02/10 10:58:29;;;;;;;10.13;8.52;;;9.60;75.00;;;;;;5038205;28;20570;-63
2022/02/10 11:03:33;;;;;;;11.15;9.10;;;9.60;75.10;;;;;;5041815;28;20112;-63
2022/02/10 13:31:54;;;;;;;11.55;9.70;;;9.70;74.70;;;;;;5039421;28;20032;-62
2022/02/10 14:17:02;;;;;;;13.70;11.75;;;9.70;74.50;;;;;;5043609;28;20033;-61
2022/02/10 14:19:37;;;;;;;13.48;11.60;;;9.70;74.50;;;;;;5041208;28;20039;-61
2022/02/10 14:22:11;;;;;;;16.10;12.73;;;9.70;74.30;;;;;;5044928;28;20064;-61
2022/02/10 14:27:21;;;;;;;15.80;12.63;;;9.80;74.10;;;;;;5044648;28;20064;-61
2022/02/10 14:29:48;;;;;;;15.60;12.23;;;9.80;74.10;;;;;;5046260;28;20442;-61
2022/02/10 14:32:16;;;;;;;14.57;10.93;;;9.80;73.90;;;;;;5042237;28;20036;-61
2022/02/10 14:34:43;;;;;;;15.27;12.13;;;9.80;73.90;;;;;;5044450;28;20411;-61
2022/02/10 14:39:54;;;;;;;14.65;12.40;;;9.70;73.80;;;;;;5040124;28;20523;-61
2022/02/10 15:50:45;;;;;;;14.43;11.20;;;9.50;73.30;;;;;;5042098;28;20044;-61
2022/02/10 15:55:55;;;;;;;;;;;9.40;73.60;;;;;;5040150;28;20062;-60
2022/02/10 16:17:28;;;;;;;15.00;10.98;;;9.30;73.80;;;;;;5043778;28;20925;-61
2022/02/10 16:19:54;;;;;;;11.00;9.75;;;9.40;73.80;;;;;;5047925;28;20025;-61
2022/02/10 16:22:24;;;;;;;13.15;10.40;;;9.40;73.70;;;;;;5047658;28;20418;-61
2022/02/10 16:25:25;;;;;;;12.65;10.65;;;9.40;73.70;;;;;;5047698;28;20032;-61
2022/02/10 16:27:49;;;;;;;;;;;9.40;73.90;;;;;;5047104;28;20025;-61
2022/02/10 16:30:15;;;;;;;12.43;10.27;;;9.30;73.80;;;;;;5047117;28;19908;-61
2022/02/10 16:32:40;;;;;;;14.27;11.13;;;9.30;73.90;;;;;;5046276;28;20520;-61
2022/02/10 16:35:08;;;;;;;12.32;10.52;;;9.30;73.90;;;;;;5052059;28;20044;-61
2022/02/10 16:37:35;;;;;;;14.35;11.95;;;9.40;73.90;;;;;;5047623;28;20028;-61
2022/02/10 16:40:01;;;;;;;12.85;10.85;;;9.40;73.90;;;;;;5044866;28;20092;-61
2022/02/10 16:42:27;;;;;;;14.48;11.43;;;9.40;73.90;;;;;;5048298;28;20029;-61
2022/02/10 16:44:53;;;;;;;13.05;10.93;;;9.40;73.90;;;;;;5043804;28;20507;-61
2022/02/10 16:47:19;;;;;;;12.82;11.25;;;9.40;73.80;;;;;;5042057;28;20017;-61
2022/02/10 16:49:46;;;;;;;13.27;10.80;;;9.40;73.70;;;;;;5047434;28;20148;-61
2022/02/10 16:52:34;;;;;;;12.65;10.45;;;9.40;73.70;;;;;;5048203;28;20504;-61
2022/02/10 16:55:17;;;;;;;12.30;10.20;;;9.40;73.70;;;;;;5041009;28;20025;-61
2022/02/10 17:19:28;;;;;;;13.52;11.23;;;9.20;73.80;;;;;;5051834;28;20044;-61
2022/02/10 17:27:25;;;;;;;14.00;11.43;;;9.20;73.50;;;;;;5053189;28;20381;-61
2022/02/10 17:46:04;;;;;;;14.70;11.52;;;8.80;73.50;;;;;;5050972;28;20064;-61
2022/02/10 17:53:59;;;;;;;15.57;12.98;;;8.60;73.80;;;;;;5051335;28;20086;-63
2022/02/10 17:56:26;;;;;;;15.60;12.80;;;8.50;73.80;;;;;;5037000;28;20038;-61
2022/02/10 17:58:52;;;;;;;15.60;12.45;;;8.50;73.90;;;;;;5055478;28;20028;-61
2022/02/10 18:01:18;;;;;;;17.73;13.85;;;8.50;74.00;;;;;;5051795;28;20091;-63
2022/02/10 18:03:44;;;;;;;15.73;13.30;;;8.40;74.10;;;;;;5049672;28;20420;-61
2022/02/10 18:09:11;;;;;;;16.77;12.90;;;8.30;74.40;;;;;;5051942;28;20115;-61
2022/02/10 18:14:22;;;;;;;17.23;14.50;;;8.20;74.40;;;;;;5055440;28;20036;-62
2022/02/10 18:16:53;;;;;;;16.88;14.45;;;8.20;74.40;;;;;;5052522;28;20029;-62
2022/02/10 18:19:29;;;;;;;17.70;14.77;;;8.20;74.50;;;;;;5051645;28;20025;-62
2022/02/10 19:02:13;;;;;;;17.65;13.65;;;7.70;75.70;;;;;;5045387;28;20036;-62
2022/02/10 19:09:43;;;;;;;20.17;13.63;;;7.70;75.80;;;;;;5062388;28;20104;-62
2022/02/10 19:12:24;;;;;;;16.10;12.77;;;7.70;75.80;;;;;;5051679;28;20025;-62
2022/02/10 19:14:55;;;;;;;15.98;13.27;;;7.60;75.80;;;;;;5057406;28;20071;-62
2022/02/10 19:17:22;;;;;;;;;;;7.50;76.00;;;;;;5062159;28;20369;-62
2022/02/10 19:19:47;;;;;;;15.95;12.98;;;7.40;75.90;;;;;;5063249;28;19958;-62
2022/02/10 19:22:13;;;;;;;19.02;14.02;;;7.40;76.40;;;;;;5057508;28;20025;-62
2022/02/10 19:24:39;;;;;;;16.70;13.40;;;7.30;76.60;;;;;;5062299;28;20112;-62
2022/02/10 19:27:05;;;;;;;19.73;15.13;;;7.30;76.80;;;;;;5064616;28;20532;-62
2022/02/10 19:29:32;;;;;;;17.83;14.15;;;7.20;77.10;;;;;;5060093;28;20037;-62
2022/02/10 19:31:57;;;;;;;17.95;14.10;;;7.20;77.30;;;;;;5063666;28;20415;-62
2022/02/10 19:34:24;;;;;;;19.15;14.82;;;7.20;77.40;;;;;;5053258;28;20047;-62
2022/02/10 19:36:52;;;;;;;18.02;14.02;;;7.20;77.50;;;;;;5055613;28;20033;-62
2022/02/10 19:39:21;;;;;;;20.83;14.32;;;7.20;77.50;;;;;;5058787;28;20073;-62
2022/02/10 19:41:49;;;;;;;18.83;14.15;;;7.20;77.50;;;;;;5050652;28;20366;-62
2022/02/10 19:44:15;;;;;;;18.70;14.25;;;7.20;77.60;;;;;;5054739;28;20029;-62
2022/02/10 19:46:43;;;;;;;18.67;14.35;;;7.20;77.60;;;;;;5064162;28;20028;-62
2022/02/10 19:49:14;;;;;;;18.85;14.77;;;7.20;78.20;;;;;;5060106;28;20029;-62
2022/02/10 19:51:40;;;;;;;16.55;11.90;;;7.20;77.80;;;;;;5058448;28;20415;-62
2022/02/10 19:54:06;;;;;;;16.35;13.13;;;7.20;77.80;;;;;;5065885;28;20043;-62
2022/02/10 19:56:33;;;;;;;16.70;12.88;;;7.20;77.90;;;;;;5048672;28;20037;-62
2022/02/10 19:58:58;;;;;;;20.80;14.55;;;7.20;77.80;;;;;;5054053;28;20021;-62
2022/02/10 20:01:26;;;;;;;17.63;13.30;;;7.20;78.00;;;;;;5055171;28;20040;-62
2022/02/10 20:03:52;;;;;;;18.55;14.32;;;7.10;77.90;;;;;;5059092;28;20314;-62
2022/02/10 20:06:18;;;;;;;20.00;15.82;;;7.10;78.00;;;;;;5057931;28;20033;-62
2022/02/10 20:08:46;;;;;;;19.00;14.40;;;7.10;78.00;;;;;;5053144;28;20033;-62
2022/02/10 20:11:12;;;;;;;19.27;13.93;;;7.10;78.00;;;;;;5064020;28;20546;-62
2022/02/10 20:13:38;;;;;;;18.55;13.90;;;7.10;78.10;;;;;;5054873;28;20025;-62
2022/02/10 20:16:08;;;;;;;18.33;14.35;;;7.00;78.20;;;;;;5065501;28;20492;-62
2022/02/10 20:18:37;;;;;;;18.65;14.18;;;7.00;78.50;;;;;;5050839;28;20021;-62
2022/02/10 20:21:04;;;;;;;19.10;14.38;;;7.00;78.50;;;;;;5053178;28;20024;-62
2022/02/10 20:23:33;;;;;;;21.52;15.98;;;6.90;78.60;;;;;;5054003;28;20029;-62
2022/02/10 20:26:00;;;;;;;19.05;13.25;;;6.90;78.80;;;;;;5061088;28;20036;-62
2022/02/10 20:28:27;;;;;;;19.55;15.48;;;6.80;78.80;;;;;;5047544;28;20032;-62
2022/02/10 20:30:52;;;;;;;20.63;16.27;;;6.80;79.10;;;;;;5047676;28;20473;-62
2022/02/10 20:33:21;;;;;;;21.45;16.40;;;6.80;79.20;;;;;;5046914;28;20046;-62
2022/02/10 20:35:50;;;;;;;23.45;18.00;;;6.80;79.30;;;;;;5047637;28;20123;-62
2022/02/10 20:38:18;;;;;;;25.73;17.90;;;6.70;79.40;;;;;;5056740;28;20037;-62
2022/02/10 20:40:46;;;;;;;21.92;16.52;;;6.70;79.50;;;;;;5061159;28;20090;-62
2022/02/10 20:43:12;;;;;;;21.13;17.52;;;6.70;79.50;;;;;;5049159;28;20476;-62
2022/02/10 20:45:38;;;;;;;25.98;17.60;;;6.70;79.70;;;;;;5055569;28;20029;-62
2022/02/10 20:48:06;;;;;;;19.77;15.85;;;6.60;79.70;;;;;;5064842;28;20032;-62
2022/02/10 20:50:31;;;;;;;20.92;16.58;;;6.60;79.80;;;;;;5054926;28;20472;-62
2022/02/10 20:52:58;;;;;;;21.00;14.35;;;6.60;79.90;;;;;;5053268;28;20021;-62
2022/02/10 20:55:24;;;;;;;22.02;16.67;;;6.60;80.00;;;;;;5052139;28;20488;-62
2022/02/10 20:57:50;;;;;;;21.05;15.65;;;6.50;80.10;;;;;;5051905;28;20048;-62
2022/02/10 21:00:18;;;;;;;21.40;14.68;;;6.50;80.30;;;;;;5056936;28;20060;-62
2022/02/10 21:02:47;;;;;;;20.65;16.92;;;6.50;80.20;;;;;;5055325;28;20033;-62
2022/02/10 21:05:39;;;;;;;22.27;16.67;;;6.50;80.30;;;;;;5052404;28;20053;-62
2022/02/10 21:10:28;;;;;;;23.85;17.58;;;6.40;80.20;;;;;;5058833;28;20036;-62
2022/02/10 21:12:54;;;;;;;20.38;14.18;;;6.50;80.50;;;;;;5049663;28;20032;-62
2022/02/10 21:15:26;;;;;;;22.23;17.60;;;6.40;80.30;;;;;;5052979;28;20029;-62
2022/02/10 21:17:57;;;;;;;23.10;16.65;;;6.40;80.60;;;;;;5054744;28;20154;-62
2022/02/10 21:20:26;;;;;;;21.70;15.32;;;6.40;80.70;;;;;;5058634;28;20446;-62
2022/02/10 21:23:00;;;;;;;22.33;17.35;;;6.40;80.70;;;;;;5055415;28;20033;-62
2022/02/10 21:25:32;;;;;;;21.48;16.35;;;6.40;80.80;;;;;;5060804;28;20480;-62
2022/02/10 21:27:58;;;;;;;21.48;17.48;;;6.40;81.20;;;;;;5055590;28;20040;-62
2022/02/10 21:30:27;;;;;;;22.17;16.63;;;6.30;80.80;;;;;;5055973;28;20491;-62
2022/02/10 21:32:56;;;;;;;18.63;12.27;;;6.30;80.90;;;;;;5052795;28;20066;-62
2022/02/10 21:38:14;;;;;;;25.48;14.18;;;6.30;81.30;;;;;;5050786;28;20028;-62
2022/02/10 21:57:21;;;;;;;16.65;11.75;;;6.20;81.50;;;;;;5052986;28;20052;-62
2022/02/10 22:01:44;;;;;;;22.27;15.60;;;6.20;81.40;;;;;;5052392;28;20102;-62
2022/02/10 22:21:38;;;;;;;21.77;15.73;;;6.30;82.10;;;;;;5055867;28;20024;-62
2022/02/10 22:24:09;;;;;;;22.23;17.70;;;6.30;82.30;;;;;;5053339;28;20055;-62
2022/02/10 22:26:36;;;;;;;24.75;19.00;;;6.30;82.30;;;;;;5062600;28;20029;-62
2022/02/10 22:29:20;;;;;;;21.30;16.90;;;6.40;82.40;;;;;;5053867;28;20025;-62
2022/02/10 22:36:42;;;;;;;23.08;16.02;;;6.50;82.40;;;;;;5060913;28;20020;-62
2022/02/10 22:39:10;;;;;;;22.98;16.92;;;6.50;82.20;;;;;;5056631;28;20029;-62
2022/02/10 22:41:36;;;;;;;23.58;17.67;;;6.50;82.20;;;;;;5054359;28;20021;-62
2022/02/10 22:44:03;;;;;;;23.15;17.85;;;6.60;82.10;;;;;;5065013;28;20025;-62
2022/02/10 22:46:30;;;;;;;27.52;19.60;;;6.60;81.80;;;;;;5059202;28;20056;-62
2022/02/10 22:48:56;;;;;;;25.95;19.48;;;6.70;81.60;;;;;;5056199;28;20025;-62
2022/02/10 22:51:24;;;;;;;24.08;19.02;;;6.70;81.50;;;;;;5046933;28;20035;-62
2022/02/10 22:53:50;;;;;;;26.45;18.42;;;6.80;81.40;;;;;;5052094;28;20032;-62
2022/02/10 22:56:18;;;;;;;28.77;20.90;;;6.80;81.20;;;;;;5063846;28;20100;-62
2022/02/10 22:58:44;;;;;;;28.50;22.45;;;6.90;81.00;;;;;;5055985;28;20021;-62
2022/02/10 23:01:12;;;;;;;35.70;26.88;;;6.90;80.90;;;;;;5059851;28;20014;-62
2022/02/10 23:03:39;;;;;;;35.70;26.65;;;6.90;80.80;;;;;;5054876;28;20025;-62
2022/02/10 23:06:06;;;;;;;35.33;27.50;;;6.90;80.70;;;;;;5060245;28;20107;-62
2022/02/10 23:08:32;;;;;;;34.35;26.60;;;6.90;80.70;;;;;;5054893;28;20055;-62
2022/02/10 23:10:58;;;;;;;31.00;24.80;;;6.90;80.60;;;;;;5056348;28;20037;-62
2022/02/10 23:13:28;;;;;;;33.30;24.70;;;6.90;80.60;;;;;;5061889;28;20393;-62
2022/02/10 23:15:55;;;;;;;31.67;24.10;;;6.90;80.70;;;;;;5054463;28;20028;-61
2022/02/10 23:18:23;;;;;;;29.23;23.38;;;6.90;80.80;;;;;;5054621;28;20386;-62
2022/02/10 23:20:50;;;;;;;30.45;23.65;;;6.90;80.90;;;;;;5060314;28;20029;-62
2022/02/10 23:23:17;;;;;;;29.67;24.70;;;6.90;81.10;;;;;;5053361;28;20033;-62
2022/02/10 23:25:45;;;;;;;28.80;22.77;;;6.90;80.90;;;;;;5046833;28;20086;-62
2022/02/10 23:28:13;;;;;;;28.83;22.20;;;7.00;80.80;;;;;;5053525;28;20473;-62
2022/02/10 23:30:43;;;;;;;26.33;21.25;;;7.00;80.60;;;;;;5048398;28;20060;-62
2022/02/10 23:33:32;;;;;;;26.05;20.83;;;7.00;80.50;;;;;;5048843;28;20445;-62
2022/02/10 23:38:34;;;;;;;28.30;21.55;;;7.00;80.20;;;;;;5050858;28;22068;-62
2022/02/10 23:43:36;;;;;;;24.70;20.33;;;7.00;80.20;;;;;;5051288;28;20369;-62
2022/02/10 23:46:02;;;;;;;27.02;21.52;;;7.00;80.10;;;;;;5050267;28;20032;-62
2022/02/10 23:48:31;;;;;;;29.13;21.60;;;7.00;80.10;;;;;;5046977;28;20040;-62
2022/02/10 23:50:56;;;;;;;25.25;20.95;;;7.00;80.10;;;;;;5048620;28;20035;-62
2022/02/10 23:53:22;;;;;;;25.70;21.20;;;7.10;80.10;;;;;;5053256;28;20123;-62
2022/02/10 23:55:49;;;;;;;28.63;21.52;;;7.10;80.10;;;;;;5045960;28;20030;-62
